»·PEaware :: ACA421 KBUR-KLAS

ACA421 :: KBUR-KLAS

FLIGHT INFORMATION

Flight Status: Arrived
Operator:
Air Canada
More flights by this operator :: More flights under this callsign
Pilot: Matt G. (17748)
Aircraft: DEHAVILLAND DASH 8 400
(DH8D)
More flights by this aircraft type
Origin: KBUR Bob Hope-Burbank
United States
Destination: KLAS McCarran Intl
United States
More flights between these airports :: More routes between these airports
Route: VNY3 DAG CRESO4
File this flight plan on PilotEdge
Remarks: I-5 Rating
Altitude:
(Current/Filed)
19,000ft
Speed:
(Current/Filed)
345kts
Departed: 09-Jan-18 08:09 PM
Arrived: 09-Jan-18 09:03 PM
Distance/Time
Traveled:
194nm/0:54
Distance/Time
To Go:
Arrived

Flight Plot

Page will automatically refresh every two minutes.

Flight plan parsing failed; only flown route is shown


Map Options




Map Legend


Flown Route
Filed Route
Departure Airport
Arrival Airport
Navaid (VOR, NDB)
Fix

Horizontal Profiles

Position Reports

Time Latitude Longitude Heading Altitude Ground
Speed
09-Jan-18 19:38 34.196766 -118.351773 180 728ft 0kts
09-Jan-18 19:39 34.196766 -118.351773 180 728ft 0kts
09-Jan-18 19:40 34.196766 -118.351773 180 728ft 0kts
09-Jan-18 19:41 34.196766 -118.351773 180 728ft 0kts
09-Jan-18 19:42 34.196766 -118.351773 180 728ft 0kts
09-Jan-18 19:43 34.196766 -118.351773 180 728ft 0kts
09-Jan-18 19:44 34.196766 -118.351773 180 728ft 0kts
09-Jan-18 19:45 34.196766 -118.351773 180 728ft 0kts
09-Jan-18 19:46 34.196766 -118.351773 180 728ft 0kts
09-Jan-18 19:47 34.196766 -118.351773 180 728ft 0kts
09-Jan-18 19:48 34.196766 -118.351773 180 728ft 0kts
09-Jan-18 19:49 34.196766 -118.351773 180 728ft 0kts
09-Jan-18 19:50 34.196766 -118.351773 180 728ft 0kts
09-Jan-18 19:51 34.196766 -118.351773 180 728ft 0kts
09-Jan-18 19:52 34.196766 -118.351773 180 728ft 0kts
09-Jan-18 19:53 34.196766 -118.351773 180 728ft 0kts
09-Jan-18 19:54 34.196766 -118.351773 180 728ft 0kts
09-Jan-18 19:55 34.196766 -118.351773 180 728ft 0kts
09-Jan-18 19:56 34.196766 -118.351773 180 728ft 0kts
09-Jan-18 19:57 34.196766 -118.351773 180 728ft 0kts
09-Jan-18 19:58 34.196766 -118.351773 180 728ft 0kts
09-Jan-18 19:59 34.196766 -118.351773 180 728ft 0kts
09-Jan-18 20:00 34.196766 -118.351773 180 728ft 0kts
09-Jan-18 20:01 34.196766 -118.351773 180 728ft 0kts
09-Jan-18 20:02 34.196915 -118.351773 180 728ft 3kts
09-Jan-18 20:03 34.197112 -118.351549 268 728ft 0kts
09-Jan-18 20:04 34.197112 -118.351549 268 728ft 0kts
09-Jan-18 20:05 34.197112 -118.351549 268 728ft 0kts
09-Jan-18 20:06 34.197112 -118.351549 268 728ft 0kts
09-Jan-18 20:07 34.197077 -118.353984 264 728ft 7kts
09-Jan-18 20:08 34.198685 -118.355363 349 728ft 13kts
09-Jan-18 20:09 34.202026 -118.356322 346 728ft 9kts
09-Jan-18 20:10 34.205239 -118.357230 348 728ft 7kts
09-Jan-18 20:11 34.208497 -118.358103 346 728ft 11kts
09-Jan-18 20:12 34.211259 -118.358888 347 728ft 7kts
09-Jan-18 20:13 34.211701 -118.359220 316 728ft 0kts
09-Jan-18 20:14 34.211806 -118.360356 167 728ft 8kts
09-Jan-18 20:15 34.180913 -118.354625 194 1945ft 153kts
09-Jan-18 20:16 34.146643 -118.393981 224 3930ft 203kts
09-Jan-18 20:17 34.156231 -118.452449 337 3972ft 222kts
09-Jan-18 20:18 34.216530 -118.462801 354 5090ft 231kts
09-Jan-18 20:19 34.278317 -118.468180 353 8008ft 217kts
09-Jan-18 20:20 34.327908 -118.430012 40 10590ft 232kts
09-Jan-18 20:21 34.373187 -118.374767 39 12752ft 240kts
09-Jan-18 20:22 34.417818 -118.320228 37 14655ft 242kts
09-Jan-18 20:23 34.463987 -118.264163 36 16349ft 244kts
09-Jan-18 20:24 34.510045 -118.208527 35 17842ft 246kts
09-Jan-18 20:25 34.558050 -118.150948 34 18852ft 261kts
09-Jan-18 20:26 34.612536 -118.086667 36 18899ft 295kts
09-Jan-18 20:27 34.640376 -117.987050 74 18898ft 344kts
09-Jan-18 20:28 34.652416 -117.874952 76 18891ft 354kts
09-Jan-18 20:29 34.665047 -117.759738 72 18879ft 357kts
09-Jan-18 20:30 34.693763 -117.647554 65 18878ft 355kts
09-Jan-18 20:31 34.722827 -117.535244 67 18880ft 357kts
09-Jan-18 20:32 34.750907 -117.424716 67 18885ft 358kts
09-Jan-18 20:33 34.778904 -117.314378 67 18889ft 358kts
09-Jan-18 20:34 34.805949 -117.207546 68 18884ft 359kts
09-Jan-18 20:35 34.833894 -117.096147 68 18879ft 359kts
09-Jan-18 20:36 34.862031 -116.983829 69 18874ft 360kts
09-Jan-18 20:37 34.890344 -116.870484 69 18871ft 361kts
09-Jan-18 20:38 34.917990 -116.758793 70 18869ft 362kts
09-Jan-18 20:39 34.945579 -116.647171 71 18869ft 363kts
09-Jan-18 20:40 34.977195 -116.541396 59 18870ft 361kts
09-Jan-18 20:41 35.023376 -116.441659 59 18870ft 361kts
09-Jan-18 20:42 35.067345 -116.342301 60 18871ft 361kts
09-Jan-18 20:43 35.110112 -116.245160 60 18871ft 362kts
09-Jan-18 20:44 35.155801 -116.141632 60 18870ft 363kts
09-Jan-18 20:45 35.199831 -116.041354 60 18869ft 364kts
09-Jan-18 20:46 35.244350 -115.940254 61 18392ft 367kts
09-Jan-18 20:47 35.286389 -115.844113 62 16954ft 355kts
09-Jan-18 20:48 35.334985 -115.752060 46 15424ft 350kts
09-Jan-18 20:49 35.397323 -115.671641 46 13851ft 345kts
09-Jan-18 20:50 35.455537 -115.593700 46 12351ft 324kts
09-Jan-18 20:51 35.511675 -115.518460 45 11126ft 303kts
09-Jan-18 20:52 35.564651 -115.447526 45 11019ft 290kts
09-Jan-18 20:53 35.617336 -115.376612 46 11014ft 297kts
09-Jan-18 20:54 35.670630 -115.304995 46 11013ft 301kts
09-Jan-18 20:55 35.725574 -115.230763 47 9948ft 308kts
09-Jan-18 20:56 35.778630 -115.157746 53 8208ft 284kts
09-Jan-18 20:57 35.824549 -115.089694 46 7038ft 235kts
09-Jan-18 20:58 35.866549 -115.034018 46 7016ft 226kts
09-Jan-18 20:59 35.907220 -114.979708 46 7014ft 233kts
09-Jan-18 21:00 35.950071 -114.922543 46 7009ft 237kts
09-Jan-18 21:01 35.994041 -114.863926 46 6582ft 246kts
09-Jan-18 21:02 36.046715 -114.829268 2 5209ft 218kts
09-Jan-18 21:03 36.083884 -114.850709 270 5006ft 166kts
09-Jan-18 21:04 36.077024 -114.905441 257 5011ft 166kts
09-Jan-18 21:05 36.073225 -114.962338 269 4744ft 176kts
09-Jan-18 21:06 36.073766 -115.020164 269 3851ft 167kts
09-Jan-18 21:07 36.073738 -115.074178 269 3015ft 146kts
09-Jan-18 21:08 36.073665 -115.122115 269 2270ft 138kts
09-Jan-18 21:09 36.073639 -115.145763 270 2122ft 10kts
09-Jan-18 21:10 36.074216 -115.149421 299 2123ft 7kts
09-Jan-18 21:11 36.075205 -115.151212 333 2123ft 8kts
09-Jan-18 21:12 36.077513 -115.152614 336 2123ft 10kts
09-Jan-18 21:13 36.077806 -115.150181 93 2123ft 9kts
09-Jan-18 21:14 36.077623 -115.146642 91 2123ft 11kts
09-Jan-18 21:15 36.077495 -115.142626 76 2123ft 8kts
09-Jan-18 21:16 36.079433 -115.142325 2 2122ft 0kts

Navigation Log

Ident Type
Flight plan parsing failed, navigation log unavailable